Time;durP1;ratioP1;P1;durP2;ratioP2;P2;SDS_P1;SDS_P2;PMS_P1;PMS_P2;Temp;Humidity;BMP_temperature;BMP_pressure;BME280_temperature;BME280_humidity;BME280_pressure;Samples;Min_cycle;Max_cycle;Signal;HPM_P1;HPM_P2
2023/01/12 00:02:02;;;;;;;58.77;25.90;;;3.30;99.90;;;;;;4413258;28;657898;-66
2023/01/12 00:04:49;;;;;;;59.47;26.53;;;3.30;99.90;;;;;;4379702;28;657880;-66
2023/01/12 00:07:37;;;;;;;63.77;26.60;;;3.30;99.90;;;;;;4370992;28;657864;-67
2023/01/12 00:10:24;;;;;;;61.20;24.93;;;3.50;99.90;;;;;;4441238;28;657361;-66
2023/01/12 00:13:12;;;;;;;51.77;23.13;;;3.50;99.90;;;;;;4423043;28;658171;-66
2023/01/12 00:19:14;;;;;;;59.03;23.83;;;3.50;99.90;;;;;;4404981;28;657547;-66
2023/01/12 00:22:07;;;;;;;50.30;21.60;;;3.60;99.90;;;;;;4408765;28;658588;-66
2023/01/12 00:24:54;;;;;;;50.00;22.37;;;3.60;99.90;;;;;;4418377;28;657734;-66
2023/01/12 00:27:42;;;;;;;45.67;20.17;;;3.50;99.90;;;;;;4423131;28;657933;-66
2023/01/12 00:30:30;;;;;;;49.53;22.87;;;3.40;99.90;;;;;;4444480;28;657677;-66
2023/01/12 00:33:18;;;;;;;43.80;18.33;;;3.50;99.90;;;;;;4419807;28;658219;-66
2023/01/12 00:36:06;;;;;;;46.53;17.43;;;3.50;99.90;;;;;;4426345;28;657782;-66
2023/01/12 00:38:54;;;;;;;47.60;22.43;;;3.50;99.90;;;;;;4447248;28;657675;-66
2023/01/12 00:47:53;;;;;;;57.77;26.40;;;3.30;99.90;;;;;;4410554;28;657513;-66
2023/01/12 00:50:40;;;;;;;63.83;26.97;;;3.30;99.90;;;;;;4416857;28;657935;-66
2023/01/12 00:53:27;;;;;;;62.67;26.93;;;3.30;99.90;;;;;;4430831;28;659103;-66
2023/01/12 00:56:16;;;;;;;62.30;29.07;;;3.30;99.90;;;;;;4438180;28;657566;-66
2023/01/12 00:59:03;;;;;;;63.73;28.07;;;3.30;99.90;;;;;;4435839;28;658508;-66
2023/01/12 01:01:50;;;;;;;62.93;29.40;;;3.30;99.90;;;;;;4421685;28;657234;-66
2023/01/12 01:04:39;;;;;;;68.33;30.20;;;3.20;99.90;;;;;;4428570;28;657891;-66
2023/01/12 01:07:26;;;;;;;57.87;27.93;;;3.30;99.90;;;;;;4418167;28;657287;-66
2023/01/12 01:10:13;;;;;;;71.90;32.10;;;3.20;99.90;;;;;;4436263;28;658390;-66
2023/01/12 01:13:01;;;;;;;64.10;28.07;;;3.30;99.90;;;;;;4416486;28;657635;-66
2023/01/12 01:15:48;;;;;;;63.67;29.77;;;3.30;99.90;;;;;;4438095;28;658342;-67
2023/01/12 01:18:35;;;;;;;68.20;30.57;;;3.30;99.90;;;;;;4429233;28;658878;-67
2023/01/12 01:21:24;;;;;;;64.27;29.10;;;3.30;99.90;;;;;;4447833;28;658587;-66
2023/01/12 01:24:11;;;;;;;65.67;29.23;;;3.30;99.90;;;;;;4426328;28;657804;-66
2023/01/12 01:26:59;;;;;;;65.57;30.33;;;3.30;99.90;;;;;;4438184;28;658086;-66
2023/01/12 01:29:46;;;;;;;70.33;29.67;;;3.30;99.90;;;;;;4418516;28;657639;-66
2023/01/12 01:32:33;;;;;;;62.93;29.73;;;3.30;99.90;;;;;;4437168;28;658233;-66
2023/01/12 01:35:20;;;;;;;67.37;29.70;;;3.40;99.90;;;;;;4410350;28;657657;-66
2023/01/12 01:38:09;;;;;;;72.50;31.80;;;3.30;99.90;;;;;;4439391;28;658435;-67
2023/01/12 01:40:57;;;;;;;69.30;31.77;;;3.40;99.90;;;;;;4423407;28;657560;-67
2023/01/12 01:43:53;;;;;;;69.63;30.63;;;3.30;99.90;;;;;;4434711;28;657293;-67
2023/01/12 01:46:42;;;;;;;60.17;28.07;;;3.30;99.90;;;;;;4404862;28;657535;-66
2023/01/12 01:49:30;;;;;;;72.78;31.73;;;3.30;99.90;;;;;;4434628;28;657915;-66
2023/01/12 01:52:19;;;;;;;66.10;30.57;;;3.30;99.90;;;;;;4411238;28;658907;-66
2023/01/12 01:55:11;;;;;;;69.70;29.97;;;3.30;99.90;;;;;;4420965;28;657563;-66
2023/01/12 01:57:59;;;;;;;64.97;30.57;;;3.40;99.90;;;;;;4416571;28;658153;-66
2023/01/12 02:00:46;;;;;;;64.60;30.20;;;3.40;99.90;;;;;;4417258;28;657975;-66
2023/01/12 02:03:33;;;;;;;68.90;29.55;;;3.40;99.90;;;;;;4437790;28;658680;-66
2023/01/12 02:06:22;;;;;;;67.27;32.03;;;3.50;99.90;;;;;;4343305;28;657421;-66
2023/01/12 02:09:13;;;;;;;66.80;30.77;;;3.50;99.90;;;;;;4322897;28;658121;-66
2023/01/12 02:18:15;;;;;;;59.77;29.03;;;3.50;99.90;;;;;;4402924;28;658362;-66
2023/01/12 02:21:12;;;;;;;67.13;31.20;;;3.50;99.90;;;;;;4409224;28;658107;-66
2023/01/12 02:24:35;;;;;;;64.80;29.17;;;3.60;99.90;;;;;;4422331;28;658352;-66
2023/01/12 02:27:44;;;;;;;57.53;29.20;;;3.60;99.90;;;;;;4397983;28;658520;-66
2023/01/12 02:31:00;;;;;;;60.43;28.87;;;3.60;99.90;;;;;;4423412;28;658107;-66
2023/01/12 02:33:54;;;;;;;63.03;29.80;;;3.70;99.90;;;;;;4400397;28;657607;-66
2023/01/12 02:36:45;;;;;;;49.37;23.30;;;3.70;99.90;;;;;;4391959;28;657911;-67
2023/01/12 02:39:35;;;;;;;58.33;28.57;;;3.70;99.90;;;;;;4420096;28;658168;-66
2023/01/12 02:42:40;;;;;;;55.67;26.27;;;3.70;99.90;;;;;;4412578;28;658146;-66
2023/01/12 02:45:34;;;;;;;46.60;21.77;;;3.70;99.90;;;;;;4422922;28;657834;-66
2023/01/12 02:48:23;;;;;;;41.13;19.50;;;3.70;99.90;;;;;;4425810;28;657576;-66
2023/01/12 02:51:13;;;;;;;51.93;25.87;;;3.80;99.90;;;;;;4442202;28;659077;-66
2023/01/12 02:54:02;;;;;;;49.03;23.40;;;3.70;99.90;;;;;;4419617;28;658870;-66
2023/01/12 02:56:50;;;;;;;46.57;22.90;;;3.70;99.90;;;;;;4434013;28;658226;-66
2023/01/12 02:59:40;;;;;;;49.00;23.90;;;3.70;99.90;;;;;;4425792;28;658162;-66
2023/01/12 03:02:27;;;;;;;44.47;22.77;;;3.70;99.90;;;;;;4421944;28;658936;-66
2023/01/12 03:05:14;;;;;;;44.73;21.87;;;3.80;99.90;;;;;;4437800;28;657937;-66
2023/01/12 03:08:03;;;;;;;44.83;22.67;;;3.80;99.90;;;;;;4421437;28;658318;-66
2023/01/12 03:11:00;;;;;;;47.57;23.83;;;3.80;99.90;;;;;;4423408;28;659293;-66
2023/01/12 03:13:49;;;;;;;47.03;22.53;;;3.80;99.90;;;;;;4398943;28;657737;-66
2023/01/12 03:16:36;;;;;;;48.67;22.43;;;3.80;99.90;;;;;;4421693;28;657896;-66
2023/01/12 03:19:26;;;;;;;40.20;21.03;;;3.80;99.90;;;;;;4424980;28;657902;-66
2023/01/12 03:22:13;;;;;;;43.33;20.90;;;3.80;99.90;;;;;;4402146;28;657824;-66
2023/01/12 03:25:03;;;;;;;45.10;20.70;;;3.80;99.90;;;;;;4410486;28;658015;-66
2023/01/12 03:27:53;;;;;;;40.35;20.25;;;3.80;99.90;;;;;;4407743;28;658091;-66
2023/01/12 03:30:41;;;;;;;43.17;21.00;;;3.80;99.90;;;;;;4420908;28;657540;-66
2023/01/12 03:33:28;;;;;;;42.23;21.17;;;3.80;99.90;;;;;;4429075;28;658299;-66
2023/01/12 03:36:22;;;;;;;41.55;20.77;;;3.80;99.90;;;;;;4402258;28;657167;-66
2023/01/12 03:39:13;;;;;;;43.63;20.57;;;3.80;99.90;;;;;;4416784;28;658745;-66
2023/01/12 03:42:04;;;;;;;39.17;19.77;;;3.90;99.90;;;;;;4382533;28;657570;-66
2023/01/12 03:44:55;;;;;;;41.97;19.27;;;3.90;99.90;;;;;;4407111;28;658300;-66
2023/01/12 03:47:43;;;;;;;38.80;18.90;;;3.90;99.90;;;;;;4403315;28;657798;-66
2023/01/12 03:50:34;;;;;;;38.10;18.70;;;4.00;99.90;;;;;;4405544;28;658201;-66
2023/01/12 03:53:22;;;;;;;37.80;18.27;;;4.00;99.90;;;;;;4405480;28;657615;-66
2023/01/12 03:56:09;;;;;;;34.77;15.93;;;3.90;99.90;;;;;;4423985;28;657547;-66
2023/01/12 03:58:58;;;;;;;38.43;18.00;;;3.90;99.90;;;;;;4405336;28;658614;-66
2023/01/12 04:01:47;;;;;;;36.97;18.40;;;3.90;99.90;;;;;;4404186;28;657746;-66
2023/01/12 04:04:34;;;;;;;34.33;17.80;;;4.00;99.90;;;;;;4424271;28;657267;-66
2023/01/12 04:07:22;;;;;;;38.53;19.00;;;4.00;99.90;;;;;;4411076;28;659030;-66
2023/01/12 04:10:10;;;;;;;36.20;17.80;;;4.00;99.90;;;;;;4427471;28;657368;-66
2023/01/12 04:12:57;;;;;;;36.70;15.23;;;4.00;99.90;;;;;;4405325;28;657955;-66
2023/01/12 04:15:46;;;;;;;35.57;17.73;;;4.00;99.90;;;;;;4432225;28;657072;-66
2023/01/12 04:18:34;;;;;;;38.20;19.23;;;4.00;99.90;;;;;;4415509;28;658419;-66
2023/01/12 04:24:25;;;;;;;38.43;19.17;;;4.00;99.90;;;;;;4397812;28;657501;-66
2023/01/12 04:27:13;;;;;;;32.70;17.20;;;4.00;99.90;;;;;;4444022;28;658235;-66
2023/01/12 04:30:00;;;;;;;36.15;18.92;;;4.00;99.90;;;;;;4425647;28;657404;-66
2023/01/12 04:32:49;;;;;;;38.17;18.17;;;3.90;99.90;;;;;;4439383;28;658855;-66
2023/01/12 04:35:36;;;;;;;34.25;15.00;;;3.90;99.90;;;;;;4423801;28;657797;-66
2023/01/12 04:38:24;;;;;;;33.20;15.53;;;4.00;99.90;;;;;;4446860;28;657803;-66
2023/01/12 04:41:11;;;;;;;20.47;11.20;;;4.00;99.90;;;;;;4421978;28;657805;-66
2023/01/12 04:43:58;;;;;;;32.57;15.90;;;4.10;99.90;;;;;;4444708;28;658721;-66
2023/01/12 04:46:45;;;;;;;33.50;16.08;;;4.10;99.90;;;;;;4422619;28;657759;-66
2023/01/12 04:49:34;;;;;;;32.80;15.33;;;4.10;99.90;;;;;;4433005;28;659236;-66
2023/01/12 04:52:21;;;;;;;31.63;15.87;;;4.00;99.90;;;;;;4423666;28;657836;-66
2023/01/12 04:55:09;;;;;;;33.57;17.23;;;4.00;99.90;;;;;;4438904;28;657657;-66
2023/01/12 04:57:56;;;;;;;33.57;16.97;;;4.00;99.90;;;;;;4419189;28;657537;-66
2023/01/12 05:00:43;;;;;;;32.38;15.57;;;4.00;99.90;;;;;;4445883;28;658234;-66
2023/01/12 05:03:30;;;;;;;33.07;16.10;;;4.00;99.90;;;;;;4427064;28;658170;-66
2023/01/12 05:06:19;;;;;;;32.97;16.83;;;4.00;99.90;;;;;;4439267;28;657580;-66
2023/01/12 05:12:13;;;;;;;31.43;15.27;;;4.00;99.90;;;;;;4411143;28;657730;-66
2023/01/12 05:15:02;;;;;;;29.27;16.47;;;4.10;99.90;;;;;;4427603;28;658207;-66
2023/01/12 05:17:49;;;;;;;26.93;14.23;;;4.10;99.90;;;;;;4442044;28;657583;-66
2023/01/12 05:20:36;;;;;;;33.93;15.13;;;4.20;99.90;;;;;;4413558;28;658005;-66
2023/01/12 05:23:25;;;;;;;29.33;16.33;;;4.10;99.90;;;;;;4438083;28;657698;-66
2023/01/12 05:26:12;;;;;;;28.50;14.73;;;4.10;99.90;;;;;;4426040;28;658374;-66
2023/01/12 05:29:00;;;;;;;27.93;15.97;;;4.20;99.90;;;;;;4440441;28;657108;-66
2023/01/12 05:31:47;;;;;;;30.73;14.17;;;4.10;99.90;;;;;;4422920;28;658527;-66
2023/01/12 05:34:34;;;;;;;29.70;15.13;;;4.20;99.90;;;;;;4432386;28;657427;-66
2023/01/12 05:37:21;;;;;;;28.83;15.10;;;4.20;99.90;;;;;;4423535;28;657928;-66
2023/01/12 05:40:11;;;;;;;34.30;16.40;;;4.20;99.90;;;;;;4444547;28;657407;-66
2023/01/12 05:46:03;;;;;;;30.70;17.40;;;4.20;99.90;;;;;;4413658;28;658119;-66
2023/01/12 05:48:50;;;;;;;40.25;20.38;;;4.20;99.90;;;;;;4413908;28;657618;-66
2023/01/12 05:51:38;;;;;;;33.83;19.20;;;4.20;99.90;;;;;;4437765;28;658566;-66
2023/01/12 05:54:25;;;;;;;37.20;20.87;;;4.20;99.90;;;;;;4427589;28;657772;-66
2023/01/12 05:57:14;;;;;;;41.17;21.37;;;4.20;99.90;;;;;;4443338;28;658149;-66
2023/01/12 06:00:01;;;;;;;41.23;21.70;;;4.20;99.90;;;;;;4415011;28;657966;-66
2023/01/12 06:02:49;;;;;;;36.03;20.03;;;4.10;99.90;;;;;;4436076;28;657592;-66
2023/01/12 06:05:36;;;;;;;37.67;20.63;;;4.10;99.90;;;;;;4418775;28;657812;-66
2023/01/12 06:08:23;;;;;;;38.33;20.17;;;4.10;99.90;;;;;;4439310;28;659333;-66
2023/01/12 06:13:55;;;;;;;36.97;19.77;;;4.10;99.90;;;;;;4429890;28;657945;-66
2023/01/12 06:14:18;;;;;;;35.93;19.43;;;4.10;99.90;;;;;;4419680;28;658674;-66
2023/01/12 06:17:06;;;;;;;32.77;17.50;;;4.00;99.90;;;;;;4367070;28;657493;-66
2023/01/12 06:19:53;;;;;;;36.37;19.60;;;4.10;99.90;;;;;;4299290;28;657078;-66
2023/01/12 06:22:40;;;;;;;36.53;18.80;;;4.10;99.90;;;;;;4284297;28;657468;-66
2023/01/12 06:25:28;;;;;;;39.10;21.07;;;4.20;99.90;;;;;;4327253;28;658062;-66
2023/01/12 06:28:16;;;;;;;33.63;17.57;;;4.20;99.90;;;;;;4424660;28;657588;-66
2023/01/12 06:31:06;;;;;;;41.00;17.47;;;4.10;99.90;;;;;;4438313;28;658054;-66
2023/01/12 06:33:53;;;;;;;22.60;12.10;;;4.10;99.90;;;;;;4412518;28;658407;-66
2023/01/12 06:36:40;;;;;;;21.73;10.70;;;4.20;99.90;;;;;;4420416;28;657377;-66
2023/01/12 06:39:27;;;;;;;28.57;14.03;;;4.20;99.90;;;;;;4447085;28;658303;-65
2023/01/12 06:42:31;;;;;;;26.13;12.87;;;4.10;99.90;;;;;;4431845;28;657459;-66
2023/01/12 06:45:18;;;;;;;25.70;12.70;;;4.20;99.90;;;;;;4420143;28;658401;-66
2023/01/12 06:48:07;;;;;;;24.73;11.23;;;4.20;99.90;;;;;;4417066;28;657727;-66
2023/01/12 06:50:56;;;;;;;21.60;11.13;;;4.20;99.90;;;;;;4438144;28;657006;-66
2023/01/12 06:53:43;;;;;;;23.53;11.73;;;4.20;99.90;;;;;;4415496;28;658286;-66
2023/01/12 06:56:30;;;;;;;20.87;11.97;;;4.20;99.90;;;;;;4419919;28;657892;-66
2023/01/12 06:59:17;;;;;;;24.50;11.80;;;4.10;99.90;;;;;;4432137;28;659100;-65
2023/01/12 07:02:05;;;;;;;22.30;11.90;;;4.10;99.90;;;;;;4431914;28;657318;-65
2023/01/12 07:04:54;;;;;;;22.07;12.77;;;4.10;99.90;;;;;;4434956;28;659237;-66
2023/01/12 07:07:42;;;;;;;25.20;12.57;;;4.20;99.90;;;;;;4414379;28;657810;-66
2023/01/12 07:10:31;;;;;;;20.80;12.40;;;4.20;99.90;;;;;;4439215;28;658140;-65
2023/01/12 07:13:18;;;;;;;23.40;13.30;;;4.10;99.90;;;;;;4422110;28;658720;-65
2023/01/12 07:16:06;;;;;;;23.23;12.83;;;4.10;99.90;;;;;;4420639;28;657613;-65
2023/01/12 07:18:53;;;;;;;23.02;12.40;;;4.10;99.90;;;;;;4434569;28;658334;-65
2023/01/12 07:21:42;;;;;;;22.07;12.70;;;4.20;99.90;;;;;;4418330;28;658801;-65
2023/01/12 07:24:30;;;;;;;24.17;12.47;;;4.20;99.90;;;;;;4436717;28;658498;-65
2023/01/12 07:27:17;;;;;;;24.00;12.90;;;4.20;99.90;;;;;;4449939;28;659022;-70
2023/01/12 07:30:06;;;;;;;26.10;12.77;;;4.10;99.90;;;;;;4436543;28;657806;-70
2023/01/12 07:32:53;;;;;;;23.80;12.17;;;4.10;99.90;;;;;;4443417;28;657537;-70
2023/01/12 07:35:41;;;;;;;23.73;12.93;;;4.10;99.90;;;;;;4422628;28;657613;-70
2023/01/12 07:38:29;;;;;;;25.87;12.20;;;4.10;99.90;;;;;;4437148;28;657448;-70
2023/01/12 07:44:24;;;;;;;24.23;12.97;;;4.10;99.90;;;;;;4392187;28;657696;-70
2023/01/12 07:47:11;;;;;;;22.23;13.03;;;4.10;99.90;;;;;;4419240;28;658081;-70
2023/01/12 07:49:58;;;;;;;23.80;12.40;;;4.10;99.90;;;;;;4435997;28;658559;-71
2023/01/12 07:52:45;;;;;;;22.63;12.57;;;4.10;99.90;;;;;;4415097;28;657530;-70
2023/01/12 07:55:34;;;;;;;21.53;12.50;;;4.10;99.90;;;;;;4443098;28;657272;-70
2023/01/12 07:58:21;;;;;;;28.10;12.50;;;4.10;99.90;;;;;;4423636;28;657284;-70
2023/01/12 08:01:08;;;;;;;23.47;13.10;;;4.10;99.90;;;;;;4431829;28;658518;-70
2023/01/12 08:03:56;;;;;;;26.30;14.23;;;4.00;99.90;;;;;;4415218;28;657501;-70
2023/01/12 08:06:43;;;;;;;21.50;13.20;;;4.00;99.90;;;;;;4437514;28;658314;-70
2023/01/12 08:09:30;;;;;;;35.17;16.10;;;4.00;99.90;;;;;;4415682;28;657833;-70
2023/01/12 08:12:19;;;;;;;27.00;15.23;;;4.00;99.90;;;;;;4432226;28;659381;-71
2023/01/12 08:15:07;;;;;;;32.17;16.63;;;4.00;99.90;;;;;;4420641;28;657692;-70
2023/01/12 08:17:56;;;;;;;30.90;16.27;;;3.90;99.90;;;;;;4441900;28;657376;-71
2023/01/12 08:20:44;;;;;;;30.20;15.67;;;4.00;99.90;;;;;;4414888;28;657720;-71
2023/01/12 08:23:33;;;;;;;34.20;18.37;;;4.10;99.90;;;;;;4420608;28;657864;-70
2023/01/12 08:26:22;;;;;;;31.03;17.53;;;4.10;99.90;;;;;;4423244;28;657721;-71
2023/01/12 08:29:12;;;;;;;39.40;21.13;;;4.10;99.90;;;;;;4433628;28;657511;-70
2023/01/12 08:32:01;;;;;;;38.67;20.50;;;4.20;99.90;;;;;;4412709;28;658024;-71
2023/01/12 08:34:49;;;;;;;40.30;21.20;;;4.20;99.90;;;;;;4410266;28;658327;-70
2023/01/12 08:37:36;;;;;;;43.87;21.53;;;4.20;99.90;;;;;;4419542;28;657895;-70
2023/01/12 08:40:23;;;;;;;40.30;21.57;;;4.30;99.90;;;;;;4443228;28;658125;-70
2023/01/12 08:43:10;;;;;;;38.70;21.47;;;4.30;99.90;;;;;;4415930;28;658012;-70
2023/01/12 08:46:06;;;;;;;34.90;20.47;;;4.40;99.90;;;;;;4441436;28;658477;-70
2023/01/12 08:48:53;;;;;;;35.37;20.87;;;4.40;99.90;;;;;;4416461;28;657832;-71
2023/01/12 08:51:41;;;;;;;46.77;25.07;;;4.60;99.90;;;;;;4421465;28;657393;-70
2023/01/12 08:54:28;;;;;;;45.73;25.73;;;4.90;99.90;;;;;;4438864;28;658330;-71
2023/01/12 08:57:16;;;;;;;47.17;25.77;;;5.30;99.90;;;;;;4418928;28;657583;-70
2023/01/12 09:00:05;;;;;;;41.97;24.73;;;5.80;99.90;;;;;;4436320;28;658053;-71
2023/01/12 09:02:53;;;;;;;36.10;20.80;;;6.10;99.90;;;;;;4411267;28;658423;-70
2023/01/12 09:05:41;;;;;;;36.47;20.13;;;6.30;99.90;;;;;;4419790;28;657459;-70
2023/01/12 09:08:28;;;;;;;36.77;21.23;;;6.90;99.90;;;;;;4438598;28;658511;-71
2023/01/12 09:11:16;;;;;;;30.20;17.57;;;7.50;99.90;;;;;;4416597;28;658025;-70
2023/01/12 09:14:03;;;;;;;23.87;14.00;;;7.20;99.90;;;;;;4439023;28;658260;-71
2023/01/12 09:16:50;;;;;;;21.47;13.10;;;7.70;99.90;;;;;;4417792;28;657379;-70
2023/01/12 09:19:39;;;;;;;26.67;13.87;;;8.10;99.90;;;;;;4441591;28;658380;-71
2023/01/12 09:22:28;;;;;;;25.93;12.33;;;8.30;99.90;;;;;;4420585;28;657497;-70
2023/01/12 09:25:15;;;;;;;17.93;10.23;;;8.30;99.90;;;;;;4418397;28;657913;-70
2023/01/12 09:28:03;;;;;;;15.73;8.97;;;8.60;99.90;;;;;;4440713;28;658103;-71
2023/01/12 09:30:50;;;;;;;15.37;8.37;;;8.60;99.90;;;;;;4430144;28;656719;-71
2023/01/12 09:33:38;;;;;;;17.73;7.87;;;9.20;99.90;;;;;;4441189;28;657725;-71
2023/01/12 09:36:27;;;;;;;14.20;7.67;;;9.40;99.90;;;;;;4419168;28;656843;-70
2023/01/12 09:39:16;;;;;;;19.23;8.17;;;9.00;99.90;;;;;;4441012;28;657361;-70
2023/01/12 09:48:22;;;;;;;14.75;7.57;;;9.50;99.90;;;;;;4395650;28;657684;-71
2023/01/12 09:51:13;;;;;;;16.03;7.67;;;8.50;99.90;;;;;;4430371;28;656941;-70
2023/01/12 09:54:02;;;;;;;12.77;6.63;;;8.00;99.90;;;;;;4419509;28;656803;-70
2023/01/12 09:56:53;;;;;;;14.63;7.30;;;9.00;99.90;;;;;;4438469;28;656770;-71
2023/01/12 09:59:44;;;;;;;15.30;6.97;;;9.20;99.90;;;;;;4393395;28;656630;-71
2023/01/12 10:02:33;;;;;;;17.73;8.03;;;9.30;99.90;;;;;;4425286;28;656660;-71
2023/01/12 10:05:27;;;;;;;15.23;7.10;;;9.30;99.90;;;;;;4416730;28;656450;-71
2023/01/12 10:08:17;;;;;;;19.10;7.93;;;9.30;99.90;;;;;;4416626;28;656271;-71
2023/01/12 10:11:17;;;;;;;12.83;7.17;;;9.30;99.90;;;;;;4413583;28;657344;-71
2023/01/12 10:14:22;;;;;;;15.67;8.23;;;9.00;99.90;;;;;;4420072;28;657030;-71
2023/01/12 10:17:22;;;;;;;20.60;8.30;;;8.90;99.90;;;;;;4417131;28;656896;-70
2023/01/12 10:20:18;;;;;;;13.97;6.57;;;8.70;99.90;;;;;;4413486;28;656620;-70
2023/01/12 10:23:13;;;;;;;14.07;6.97;;;8.80;99.90;;;;;;4403084;28;656739;-69
2023/01/12 10:26:03;;;;;;;18.57;7.10;;;9.60;99.90;;;;;;4419971;28;656848;-70
2023/01/12 10:28:54;;;;;;;17.97;6.93;;;10.20;99.90;;;;;;4418475;28;656416;-70
2023/01/12 10:31:41;;;;;;;20.00;7.57;;;10.20;99.90;;;;;;4414030;28;657610;-71
2023/01/12 10:34:29;;;;;;;14.13;7.20;;;11.10;99.90;;;;;;4434800;28;658075;-71
2023/01/12 10:37:16;;;;;;;20.20;8.00;;;11.20;99.90;;;;;;4413532;28;657639;-70
2023/01/12 10:40:04;;;;;;;12.10;6.10;;;12.10;99.90;;;;;;4443467;28;657963;-70
2023/01/12 10:43:22;;;;;;;15.20;5.90;;;12.00;99.90;;;;;;4424334;28;657706;-70
2023/01/12 10:46:13;;;;;;;10.40;4.63;;;11.30;99.90;;;;;;4416900;28;657361;-70
2023/01/12 10:49:16;;;;;;;12.50;3.97;;;11.30;99.90;;;;;;4410134;28;657943;-70
2023/01/12 10:52:08;;;;;;;8.20;3.30;;;11.90;99.50;;;;;;4415908;28;657873;-70
2023/01/12 10:54:55;;;;;;;5.70;2.53;;;11.60;98.20;;;;;;4403390;28;656728;-70
2023/01/12 10:57:43;;;;;;;7.27;2.80;;;11.70;96.50;;;;;;4443827;28;657556;-70
2023/01/12 11:00:30;;;;;;;6.37;2.17;;;11.00;98.90;;;;;;4421724;28;656926;-70
2023/01/12 11:03:32;;;;;;;5.87;2.50;;;11.00;98.10;;;;;;4444452;28;657309;-70
2023/01/12 11:06:31;;;;;;;7.17;2.40;;;11.00;98.40;;;;;;4422026;28;656320;-72
2023/01/12 11:09:22;;;;;;;5.13;2.10;;;10.90;95.80;;;;;;4418202;28;657043;-71
2023/01/12 11:12:19;;;;;;;8.20;3.13;;;11.10;97.50;;;;;;4417354;28;656375;-72
2023/01/12 11:15:15;;;;;;;7.47;2.17;;;10.60;97.40;;;;;;4417189;28;657481;-69
2023/01/12 11:18:17;;;;;;;7.93;2.27;;;9.30;99.20;;;;;;4418843;28;656135;-70
2023/01/12 11:21:07;;;;;;;5.43;2.17;;;9.70;99.90;;;;;;4422692;28;655451;-69
2023/01/12 11:23:56;;;;;;;9.17;2.50;;;9.30;99.90;;;;;;4416901;28;655819;-71
2023/01/12 11:26:45;;;;;;;7.37;2.43;;;8.80;99.90;;;;;;4425930;28;656795;-70
2023/01/12 11:29:37;;;;;;;9.33;2.40;;;8.70;99.90;;;;;;4420380;28;655959;-70
2023/01/12 11:32:30;;;;;;;6.40;2.37;;;8.60;99.90;;;;;;4413861;28;655396;-71
2023/01/12 11:35:26;;;;;;;9.17;2.63;;;8.60;99.90;;;;;;4393307;28;655921;-71
2023/01/12 11:38:17;;;;;;;4.73;2.30;;;8.70;99.90;;;;;;4421698;28;655723;-70
2023/01/12 11:41:06;;;;;;;8.87;2.43;;;8.50;99.90;;;;;;4425493;28;656190;-70
2023/01/12 11:43:57;;;;;;;7.73;2.47;;;8.20;99.90;;;;;;4414513;28;655561;-70
2023/01/12 11:46:46;;;;;;;5.87;2.33;;;8.10;99.90;;;;;;4435730;28;656299;-70
2023/01/12 11:49:38;;;;;;;7.95;2.00;;;8.20;99.90;;;;;;4438549;28;656544;-70
2023/01/12 11:52:25;;;;;;;10.37;2.40;;;8.40;99.90;;;;;;4414101;28;655314;-69
2023/01/12 11:55:15;;;;;;;12.17;2.80;;;8.40;99.90;;;;;;4440332;28;657496;-70
2023/01/12 11:58:06;;;;;;;8.53;3.23;;;8.70;99.90;;;;;;4419797;28;658062;-69
2023/01/12 12:00:59;;;;;;;7.53;2.72;;;8.40;99.90;;;;;;4419101;28;656985;-69
2023/01/12 12:03:54;;;;;;;10.10;3.10;;;8.30;99.90;;;;;;4416048;28;655389;-69
2023/01/12 12:06:59;;;;;;;5.03;2.10;;;8.50;99.90;;;;;;4392448;28;656752;-71
2023/01/12 12:09:57;;;;;;;9.30;3.20;;;8.90;99.90;;;;;;4400587;28;656344;-70
2023/01/12 12:12:59;;;;;;;4.77;2.10;;;9.10;99.90;;;;;;4423054;28;655971;-69
2023/01/12 12:15:50;;;;;;;8.25;2.20;;;10.10;99.90;;;;;;4396652;28;656539;-70
2023/01/12 12:18:43;;;;;;;7.50;2.07;;;10.40;99.90;;;;;;4412851;28;657532;-72
2023/01/12 12:21:39;;;;;;;9.33;2.40;;;11.20;99.90;;;;;;4404397;28;656386;-70
2023/01/12 12:24:41;;;;;;;9.53;2.57;;;11.60;94.70;;;;;;4276462;28;656330;-69
2023/01/12 12:27:37;;;;;;;5.17;1.87;;;10.80;98.00;;;;;;4241808;28;656306;-70
2023/01/12 12:30:38;;;;;;;9.37;2.13;;;10.90;96.90;;;;;;4344204;28;657128;-71
2023/01/12 12:33:28;;;;;;;11.47;1.97;;;11.80;93.00;;;;;;4402826;28;656756;-71
2023/01/12 12:36:18;;;;;;;6.93;2.30;;;10.70;94.40;;;;;;4413745;28;657904;-71
2023/01/12 12:39:38;;;;;;;7.83;2.47;;;11.60;93.00;;;;;;4434642;28;657314;-69
2023/01/12 12:45:48;;;;;;;7.67;2.33;;;12.40;92.60;;;;;;4416520;28;658444;-70
2023/01/12 12:48:38;;;;;;;6.87;1.73;;;11.90;89.00;;;;;;4397922;28;656940;-71
2023/01/12 12:51:26;;;;;;;4.90;1.83;;;12.00;86.20;;;;;;4419054;28;656463;-70
2023/01/12 12:54:16;;;;;;;4.30;1.80;;;12.20;87.70;;;;;;4436587;28;657616;-70
2023/01/12 12:57:04;;;;;;;7.70;2.13;;;12.10;85.70;;;;;;4413416;28;656769;-71
2023/01/12 12:59:53;;;;;;;5.60;1.87;;;11.80;88.90;;;;;;4417040;28;657317;-70
2023/01/12 13:02:53;;;;;;;6.97;2.20;;;12.10;86.10;;;;;;4422564;28;656684;-69
2023/01/12 13:05:44;;;;;;;6.23;1.70;;;12.10;84.10;;;;;;4411189;28;656428;-70
2023/01/12 13:08:33;;;;;;;7.00;1.83;;;11.90;84.50;;;;;;4421397;28;658196;-70
2023/01/12 13:11:21;;;;;;;10.43;2.33;;;11.50;85.80;;;;;;4418314;28;656357;-69
2023/01/12 13:14:18;;;;;;;5.60;2.03;;;11.90;85.30;;;;;;4445951;28;657806;-70
2023/01/12 13:17:29;;;;;;;8.67;3.27;;;11.80;86.60;;;;;;4407728;28;656393;-70
2023/01/12 13:21:02;;;;;;;5.00;2.20;;;11.90;84.20;;;;;;4390330;28;657232;-70
2023/01/12 13:23:51;;;;;;;6.93;2.30;;;12.40;81.30;;;;;;4419760;28;656588;-69
2023/01/12 13:26:41;;;;;;;7.20;2.30;;;11.10;84.70;;;;;;4415104;28;656779;-70
2023/01/12 13:29:46;;;;;;;7.70;2.27;;;10.90;87.00;;;;;;4418373;28;656996;-70
2023/01/12 13:32:43;;;;;;;6.17;1.90;;;11.30;86.20;;;;;;4418764;28;657160;-69
2023/01/12 13:36:07;;;;;;;5.93;2.17;;;10.80;87.90;;;;;;4392678;28;656401;-69
2023/01/12 13:39:15;;;;;;;5.28;1.85;;;11.10;90.50;;;;;;4410081;28;657081;-69
2023/01/12 13:45:10;;;;;;;6.07;2.13;;;11.50;84.30;;;;;;4396205;28;657496;-69
2023/01/12 13:47:57;;;;;;;9.17;2.77;;;11.10;85.40;;;;;;4413186;28;657728;-69
2023/01/12 13:50:47;;;;;;;6.33;2.20;;;11.10;86.80;;;;;;4442032;28;658963;-69
2023/01/12 13:53:34;;;;;;;7.80;2.50;;;11.70;84.10;;;;;;4409909;28;656371;-69
2023/01/12 13:56:23;;;;;;;5.20;2.50;;;11.70;85.10;;;;;;4417263;28;656965;-69
2023/01/12 13:59:16;;;;;;;6.57;2.33;;;12.60;80.40;;;;;;4425212;28;656270;-69
2023/01/12 14:02:04;;;;;;;10.70;2.80;;;13.10;77.60;;;;;;4419709;28;656649;-69
2023/01/12 14:05:04;;;;;;;9.87;2.40;;;12.80;76.30;;;;;;4414368;28;657273;-69
2023/01/12 14:07:54;;;;;;;9.50;3.17;;;12.20;78.50;;;;;;4394461;28;657460;-69
2023/01/12 14:10:45;;;;;;;9.13;3.00;;;12.60;79.00;;;;;;4419024;28;656514;-69
2023/01/12 14:13:51;;;;;;;7.33;2.80;;;12.50;75.40;;;;;;4429851;28;657146;-69
2023/01/12 14:19:48;;;;;;;9.70;3.50;;;11.40;77.20;;;;;;4421730;28;657383;-69
2023/01/12 14:22:36;;;;;;;13.33;3.37;;;11.30;81.30;;;;;;4405263;28;656333;-69
2023/01/12 14:25:24;;;;;;;12.13;4.23;;;11.40;81.50;;;;;;4449017;28;659571;-69
2023/01/12 14:28:19;;;;;;;8.80;2.70;;;10.80;82.00;;;;;;4422988;28;657453;-68
2023/01/12 14:31:09;;;;;;;11.63;3.17;;;10.20;83.10;;;;;;4394954;28;657261;-69
2023/01/12 14:33:57;;;;;;;12.20;3.30;;;9.10;90.40;;;;;;4426225;28;657716;-69
2023/01/12 14:36:44;;;;;;;11.47;3.03;;;8.50;93.80;;;;;;4448670;28;656503;-69
2023/01/12 14:39:35;;;;;;;8.53;3.30;;;8.00;98.80;;;;;;4416557;28;656243;-69
2023/01/12 14:48:39;;;;;;;11.43;3.93;;;7.50;99.90;;;;;;4423875;28;656394;-69
2023/01/12 14:51:28;;;;;;;12.27;3.50;;;7.30;99.90;;;;;;4389941;28;657527;-69
2023/01/12 14:54:17;;;;;;;10.10;3.47;;;6.90;99.90;;;;;;4424102;28;657149;-69
2023/01/12 14:57:06;;;;;;;11.00;3.67;;;6.80;99.90;;;;;;4452115;28;656269;-69
2023/01/12 14:59:54;;;;;;;10.63;3.57;;;6.60;99.90;;;;;;4443622;28;657632;-69
2023/01/12 15:02:41;;;;;;;10.13;3.57;;;6.40;99.90;;;;;;4424130;28;657005;-69
2023/01/12 15:05:30;;;;;;;11.47;4.03;;;6.30;99.90;;;;;;4442858;28;657012;-69
2023/01/12 15:08:25;;;;;;;12.20;3.60;;;6.10;99.90;;;;;;4416438;28;657281;-69
2023/01/12 15:11:14;;;;;;;8.80;3.27;;;6.00;99.90;;;;;;4425122;28;656963;-69
2023/01/12 15:14:01;;;;;;;11.33;3.70;;;5.90;99.90;;;;;;4420565;28;656216;-70
2023/01/12 15:26:04;;;;;;;10.10;4.27;;;5.40;99.90;;;;;;4417588;28;656778;-70
2023/01/12 15:28:51;;;;;;;14.93;4.70;;;5.30;99.90;;;;;;4421289;28;656401;-70